createdAt,value
2023-05-02T00:00:00.019Z,99295.47
2023-05-02T00:03:02.808Z,99293.75
2023-05-02T00:06:05.210Z,99295.41
2023-05-02T00:09:07.439Z,99293.06
2023-05-02T00:12:09.627Z,99287.00
2023-05-02T00:15:12.001Z,99285.50
2023-05-02T00:18:14.221Z,99293.19
2023-05-02T00:21:16.430Z,99285.00
2023-05-02T00:24:19.133Z,99291.75
2023-05-02T00:27:21.370Z,99302.16
2023-05-02T00:30:23.663Z,99292.78
2023-05-02T00:33:25.839Z,99292.91
2023-05-02T00:36:28.201Z,99299.25
2023-05-02T00:39:30.408Z,99297.19
2023-05-02T00:42:35.989Z,99289.53
2023-05-02T00:45:40.800Z,99297.25
2023-05-02T00:48:43.946Z,99300.59
2023-05-02T00:51:46.291Z,99292.09
2023-05-02T00:54:48.789Z,99297.53
2023-05-02T00:57:50.970Z,99297.16
2023-05-02T01:01:12.249Z,99303.44
2023-05-02T01:04:42.093Z,99300.41
2023-05-02T01:08:29.422Z,99307.56
2023-05-02T01:12:21.201Z,99308.91
2023-05-02T01:15:23.765Z,99305.16
2023-05-02T01:18:28.502Z,99303.97
2023-05-02T01:21:32.183Z,99297.44
2023-05-02T01:24:47.020Z,99301.75
2023-05-02T01:28:02.280Z,99301.16
2023-05-02T01:31:06.410Z,99305.16
2023-05-02T01:34:10.440Z,99302.47
2023-05-02T01:37:13.548Z,99296.91
2023-05-02T01:40:18.340Z,99297.03
2023-05-02T01:43:21.639Z,99291.16
2023-05-02T01:46:26.457Z,99288.28
2023-05-02T01:49:29.706Z,99293.41
2023-05-02T01:52:32.047Z,99291.66
2023-05-02T01:55:36.199Z,99285.88
2023-05-02T01:58:39.193Z,99285.72
2023-05-02T02:01:43.634Z,99284.81
2023-05-02T02:04:47.834Z,99280.53
2023-05-02T02:07:50.213Z,99284.00
2023-05-02T02:10:57.864Z,99283.91
2023-05-02T02:14:05.600Z,99276.00
2023-05-02T02:17:18.986Z,99281.22
2023-05-02T02:20:22.217Z,99278.31
2023-05-02T02:23:27.131Z,99270.78
2023-05-02T02:26:29.554Z,99273.44
2023-05-02T02:29:31.855Z,99270.63
2023-05-02T02:32:34.209Z,99272.84
2023-05-02T02:35:43.034Z,99264.69
2023-05-02T02:39:10.529Z,99273.31
2023-05-02T02:42:40.709Z,99270.63
2023-05-02T02:46:21.334Z,99266.97
2023-05-02T02:49:49.907Z,99274.06
2023-05-02T02:53:10.179Z,99273.84
2023-05-02T02:56:15.983Z,99272.47
2023-05-02T02:59:28.048Z,99275.31
2023-05-02T03:02:32.814Z,99277.22
2023-05-02T03:05:35.740Z,99273.16
2023-05-02T03:08:41.382Z,99282.72
2023-05-02T03:11:43.804Z,99283.34
2023-05-02T03:14:46.209Z,99286.78
2023-05-02T03:17:48.468Z,99284.97
2023-05-02T03:20:50.701Z,99289.72
2023-05-02T03:23:53.284Z,99277.63
2023-05-02T03:26:56.496Z,99293.38
2023-05-02T03:29:58.886Z,99287.25
2023-05-02T03:33:02.302Z,99290.34
2023-05-02T03:36:04.811Z,99290.75
2023-05-02T03:39:07.078Z,99295.06
2023-05-02T03:42:09.339Z,99295.47
2023-05-02T03:45:11.583Z,99300.97
2023-05-02T03:48:13.819Z,99302.59
2023-05-02T03:51:16.329Z,99302.00
2023-05-02T03:54:18.631Z,99302.63
2023-05-02T03:57:21.377Z,99301.38
2023-05-02T04:00:23.677Z,99300.97
2023-05-02T04:03:27.282Z,99307.28
2023-05-02T04:06:32.636Z,99309.72
2023-05-02T04:09:34.863Z,99307.00
2023-05-02T04:12:37.070Z,99312.84
2023-05-02T04:15:39.345Z,99306.25
2023-05-02T04:18:41.686Z,99308.50
2023-05-02T04:21:44.299Z,99309.78
2023-05-02T04:24:46.473Z,99304.09
2023-05-02T04:27:48.703Z,99309.44
2023-05-02T04:30:50.995Z,99324.19
2023-05-02T04:33:53.276Z,99311.06
2023-05-02T04:36:55.466Z,99315.97
2023-05-02T04:39:57.754Z,99319.53
2023-05-02T04:43:00.024Z,99329.94
2023-05-02T04:46:02.301Z,99333.03
2023-05-02T04:49:04.565Z,99332.84
2023-05-02T04:52:06.778Z,99336.03
2023-05-02T04:55:09.251Z,99338.81
2023-05-02T04:58:11.509Z,99341.38
2023-05-02T05:01:13.833Z,99339.88
2023-05-02T05:04:16.255Z,99345.91
2023-05-02T05:07:18.518Z,99338.59
2023-05-02T05:10:20.769Z,99346.03
2023-05-02T05:13:23.341Z,99349.75
2023-05-02T05:16:25.633Z,99344.47
2023-05-02T05:19:27.995Z,99346.25
2023-05-02T05:22:30.255Z,99350.22
2023-05-02T05:25:34.012Z,99356.50
2023-05-02T05:28:36.468Z,99353.00
2023-05-02T05:31:38.779Z,99357.75
2023-05-02T05:34:40.975Z,99351.84
2023-05-02T05:37:43.754Z,99362.53
2023-05-02T05:40:49.973Z,99360.09
2023-05-02T05:43:52.194Z,99364.91
2023-05-02T05:46:54.758Z,99366.66
2023-05-02T05:49:57.087Z,99362.81
2023-05-02T05:52:59.348Z,99357.81
2023-05-02T05:56:11.765Z,99368.41
2023-05-02T05:59:14.127Z,99374.34
2023-05-02T06:02:16.530Z,99376.22
2023-05-02T06:05:18.743Z,99386.78
2023-05-02T06:08:21.636Z,99387.53
2023-05-02T06:11:24.608Z,99398.78
2023-05-02T06:14:26.896Z,99401.84
2023-05-02T06:17:29.164Z,99396.47
2023-05-02T06:20:31.401Z,99394.97
2023-05-02T06:23:33.708Z,99391.91
2023-05-02T06:26:35.928Z,99397.56
2023-05-02T06:29:38.122Z,99397.31
2023-05-02T06:32:42.407Z,99405.81
2023-05-02T06:35:51.501Z,99406.09
2023-05-02T06:38:53.688Z,99398.97
2023-05-02T06:41:58.772Z,99404.06
2023-05-02T06:45:01.006Z,99406.97
2023-05-02T06:48:03.489Z,99406.56
2023-05-02T06:51:05.808Z,99402.69
2023-05-02T06:54:08.830Z,99407.22
2023-05-02T06:57:11.146Z,99420.41
2023-05-02T07:00:14.268Z,99419.50
2023-05-02T07:03:16.988Z,99417.16
2023-05-02T07:06:19.238Z,99410.97
2023-05-02T07:09:23.044Z,99407.00
2023-05-02T07:12:26.382Z,99415.59
2023-05-02T07:15:28.601Z,99412.31
2023-05-02T07:18:30.779Z,99415.13
2023-05-02T07:21:33.019Z,99419.25
2023-05-02T07:24:35.309Z,99414.19
2023-05-02T07:27:37.627Z,99419.28
2023-05-02T07:30:39.874Z,99410.06
2023-05-02T07:33:42.082Z,99412.38
2023-05-02T07:36:44.258Z,99412.63
2023-05-02T07:39:46.555Z,99410.06
2023-05-02T07:42:49.037Z,99409.97
2023-05-02T07:45:51.314Z,99415.38
2023-05-02T07:48:54.357Z,99414.25
2023-05-02T07:51:57.168Z,99411.81
2023-05-02T07:54:59.357Z,99419.25
2023-05-02T07:58:01.757Z,99421.25
2023-05-02T08:01:04.490Z,99418.19
2023-05-02T08:04:06.885Z,99421.87
2023-05-02T08:07:09.180Z,99413.19
2023-05-02T08:10:11.351Z,99422.47
2023-05-02T08:13:13.783Z,99421.75
2023-05-02T08:16:16.051Z,99426.72
2023-05-02T08:19:18.247Z,99430.34
2023-05-02T08:22:20.703Z,99423.22
2023-05-02T08:25:22.885Z,99418.19
2023-05-02T08:28:25.378Z,99425.78
2023-05-02T08:31:27.621Z,99422.41
2023-05-02T08:34:29.817Z,99422.94
2023-05-02T08:37:32.352Z,99425.75
2023-05-02T08:40:42.285Z,99420.25
2023-05-02T08:43:46.312Z,99419.75
2023-05-02T08:46:50.857Z,99419.47
2023-05-02T08:49:53.868Z,99427.31
2023-05-02T08:52:56.325Z,99420.56
2023-05-02T08:56:00.392Z,99417.31
2023-05-02T08:59:02.650Z,99418.12
2023-05-02T09:02:15.920Z,99421.09
2023-05-02T09:05:21.018Z,99423.00
2023-05-02T09:08:24.401Z,99414.84
2023-05-02T09:11:26.596Z,99413.25
2023-05-02T09:14:28.758Z,99408.38
2023-05-02T09:17:42.713Z,99407.56
2023-05-02T09:20:45.023Z,99410.16
2023-05-02T09:23:55.716Z,99410.47
2023-05-02T09:27:05.241Z,99415.66
2023-05-02T09:30:24.474Z,99410.75
2023-05-02T09:33:27.587Z,99411.84
2023-05-02T09:36:51.279Z,99413.75
2023-05-02T09:40:06.458Z,99409.72
2023-05-02T09:43:17.179Z,99413.16
2023-05-02T09:46:19.382Z,99412.94
2023-05-02T09:49:41.282Z,99417.31
2023-05-02T09:53:01.210Z,99404.88
2023-05-02T09:56:04.593Z,99412.66
2023-05-02T09:59:16.834Z,99409.09
2023-05-02T10:02:19.531Z,99399.72
2023-05-02T10:05:21.851Z,99406.87
2023-05-02T10:08:27.456Z,99407.37
2023-05-02T10:11:31.167Z,99409.94
2023-05-02T10:14:37.868Z,99415.03
2023-05-02T10:17:43.695Z,99405.03
2023-05-02T10:20:57.319Z,99398.69
2023-05-02T10:24:03.275Z,99398.37
2023-05-02T10:27:05.843Z,99401.22
2023-05-02T10:30:08.790Z,99390.78
2023-05-02T10:33:14.077Z,99395.25
2023-05-02T10:36:21.244Z,99394.16
2023-05-02T10:39:24.936Z,99396.56
2023-05-02T10:42:27.665Z,99393.22
2023-05-02T10:45:37.260Z,99387.69
2023-05-02T10:48:39.730Z,99391.28
2023-05-02T10:51:43.431Z,99397.44
2023-05-02T10:54:46.280Z,99392.19
2023-05-02T10:57:58.286Z,99385.44
2023-05-02T11:01:26.369Z,99381.09
2023-05-02T11:05:05.030Z,99376.75
2023-05-02T11:08:16.833Z,99375.94
2023-05-02T11:11:38.319Z,99368.91
2023-05-02T11:14:40.565Z,99378.69
2023-05-02T11:18:07.711Z,99369.66
2023-05-02T11:21:28.772Z,99371.41
2023-05-02T11:24:42.791Z,99372.41
2023-05-02T11:27:46.408Z,99360.28
2023-05-02T11:30:50.989Z,99352.59
2023-05-02T11:33:57.069Z,99351.16
2023-05-02T11:36:59.252Z,99357.38
2023-05-02T11:40:14.425Z,99346.13
2023-05-02T11:43:19.249Z,99342.97
2023-05-02T11:46:21.670Z,99343.25
2023-05-02T11:49:24.106Z,99351.38
2023-05-02T11:52:26.565Z,99346.34
2023-05-02T11:55:28.781Z,99339.22
2023-05-02T11:58:33.565Z,99339.28
2023-05-02T12:01:36.601Z,99347.28
2023-05-02T12:04:45.055Z,99339.22
2023-05-02T12:07:49.399Z,99332.16
2023-05-02T12:10:53.120Z,99333.25
2023-05-02T12:13:55.475Z,99328.81
2023-05-02T12:16:58.613Z,99330.28
2023-05-02T12:20:03.508Z,99335.09
2023-05-02T12:23:10.221Z,99334.53
2023-05-02T12:26:29.298Z,99332.94
2023-05-02T12:29:45.248Z,99333.72
2023-05-02T12:32:57.406Z,99329.91
2023-05-02T12:36:07.116Z,99324.88
2023-05-02T12:39:09.797Z,99328.81
2023-05-02T12:42:15.703Z,99324.78
2023-05-02T12:45:18.584Z,99321.13
2023-05-02T12:48:22.426Z,99325.72
2023-05-02T12:51:24.790Z,99321.94
2023-05-02T12:54:26.966Z,99326.06
2023-05-02T12:57:30.180Z,99324.44
2023-05-02T13:00:34.759Z,99321.00
2023-05-02T13:03:37.534Z,99322.91
2023-05-02T13:06:40.719Z,99315.16
2023-05-02T13:09:42.900Z,99315.00
2023-05-02T13:12:47.046Z,99306.22
2023-05-02T13:15:49.470Z,99302.34
2023-05-02T13:18:51.814Z,99311.47
2023-05-02T13:21:54.110Z,99304.59
2023-05-02T13:24:56.423Z,99302.28
2023-05-02T13:27:58.773Z,99299.59
2023-05-02T13:31:01.198Z,99291.44
2023-05-02T13:34:04.514Z,99292.19
2023-05-02T13:37:06.678Z,99296.75
2023-05-02T13:40:09.334Z,99293.41
2023-05-02T13:43:11.536Z,99290.25
2023-05-02T13:46:13.887Z,99299.31
2023-05-02T13:49:16.074Z,99292.84
2023-05-02T13:52:18.371Z,99288.47
2023-05-02T13:55:20.622Z,99290.75
2023-05-02T13:58:22.818Z,99291.56
2023-05-02T14:01:28.220Z,99296.28
2023-05-02T14:04:30.596Z,99290.41
2023-05-02T14:07:32.772Z,99296.66
2023-05-02T14:10:36.441Z,99288.59
2023-05-02T14:13:38.647Z,99287.84
2023-05-02T14:16:41.113Z,99288.44
2023-05-02T14:19:43.798Z,99276.72
2023-05-02T14:22:46.002Z,99283.19
2023-05-02T14:25:48.175Z,99284.47
2023-05-02T14:28:50.524Z,99285.47
2023-05-02T14:31:52.871Z,99281.03
2023-05-02T14:34:55.164Z,99279.94
2023-05-02T14:37:57.664Z,99278.59
2023-05-02T14:41:00.127Z,99282.22
2023-05-02T14:44:02.533Z,99284.31
2023-05-02T14:47:04.812Z,99283.53
2023-05-02T14:50:07.660Z,99282.41
2023-05-02T14:53:09.999Z,99282.25
2023-05-02T14:56:14.283Z,99285.19
2023-05-02T14:59:16.528Z,99291.22
2023-05-02T15:02:18.998Z,99284.97
2023-05-02T15:05:21.429Z,99283.81
2023-05-02T15:08:23.640Z,99281.19
2023-05-02T15:11:25.897Z,99290.41
2023-05-02T15:14:28.150Z,99282.88
2023-05-02T15:17:30.340Z,99280.22
2023-05-02T15:20:32.610Z,99277.75
2023-05-02T15:23:34.867Z,99277.53
2023-05-02T15:26:37.148Z,99275.94
2023-05-02T15:29:39.481Z,99279.50
2023-05-02T15:32:41.741Z,99276.75
2023-05-02T15:35:55.037Z,99273.47
2023-05-02T15:38:57.489Z,99278.09
2023-05-02T15:42:03.824Z,99277.03
2023-05-02T15:45:06.659Z,99277.03
2023-05-02T15:48:08.934Z,99278.09
2023-05-02T15:51:11.433Z,99268.22
2023-05-02T15:54:13.648Z,99272.28
2023-05-02T15:57:16.159Z,99269.84
2023-05-02T16:00:18.506Z,99270.91
2023-05-02T16:03:20.913Z,99272.84
2023-05-02T16:06:23.360Z,99275.00
2023-05-02T16:09:25.657Z,99271.47
2023-05-02T16:12:28.057Z,99272.59
2023-05-02T16:15:30.574Z,99272.91
2023-05-02T16:18:33.666Z,99272.03
2023-05-02T16:21:36.289Z,99274.47
2023-05-02T16:24:38.718Z,99269.03
2023-05-02T16:27:41.018Z,99271.25
2023-05-02T16:30:43.230Z,99280.22
2023-05-02T16:33:45.702Z,99274.00
2023-05-02T16:36:48.724Z,99274.81
2023-05-02T16:39:50.934Z,99277.25
2023-05-02T16:42:53.398Z,99276.78
2023-05-02T16:46:03.377Z,99272.44
2023-05-02T16:49:06.826Z,99274.06
2023-05-02T16:52:09.095Z,99271.91
2023-05-02T16:55:11.372Z,99271.38
2023-05-02T16:58:14.027Z,99268.66
2023-05-02T17:01:16.440Z,99261.94
2023-05-02T17:04:18.731Z,99272.22
2023-05-02T17:07:20.922Z,99273.88
2023-05-02T17:10:24.088Z,99282.22
2023-05-02T17:13:26.306Z,99268.75
2023-05-02T17:16:28.541Z,99279.78
2023-05-02T17:19:31.336Z,99282.53
2023-05-02T17:22:35.644Z,99287.66
2023-05-02T17:25:38.389Z,99284.66
2023-05-02T17:28:44.549Z,99288.16
2023-05-02T17:31:46.905Z,99287.59
2023-05-02T17:34:49.471Z,99296.78
2023-05-02T17:37:51.717Z,99295.94
2023-05-02T17:40:53.983Z,99292.44
2023-05-02T17:43:56.473Z,99296.47
2023-05-02T17:46:58.782Z,99296.72
2023-05-02T17:50:04.749Z,99299.16
2023-05-02T17:53:08.010Z,99297.25
2023-05-02T17:56:10.770Z,99306.38
2023-05-02T17:59:13.721Z,99309.34
2023-05-02T18:02:18.276Z,99323.56
2023-05-02T18:05:20.566Z,99323.41
2023-05-02T18:08:23.151Z,99329.56
2023-05-02T18:11:27.318Z,99333.88
2023-05-02T18:14:29.694Z,99325.75
2023-05-02T18:17:32.282Z,99337.91
2023-05-02T18:20:39.581Z,99334.09
2023-05-02T18:23:41.800Z,99343.66
2023-05-02T18:26:44.065Z,99346.44
2023-05-02T18:29:46.612Z,99348.84
2023-05-02T18:32:48.928Z,99352.00
2023-05-02T18:35:51.301Z,99357.69
2023-05-02T18:38:54.661Z,99364.78
2023-05-02T18:41:56.830Z,99364.47
2023-05-02T18:45:04.599Z,99367.13
2023-05-02T18:48:07.144Z,99367.75
2023-05-02T18:51:09.638Z,99361.69
2023-05-02T18:54:11.998Z,99361.63
2023-05-02T18:57:14.759Z,99362.56
2023-05-02T19:00:19.230Z,99371.06
2023-05-02T19:03:22.164Z,99372.28
2023-05-02T19:06:24.709Z,99374.38
2023-05-02T19:09:27.125Z,99378.88
2023-05-02T19:12:30.332Z,99386.63
2023-05-02T19:15:34.008Z,99391.50
2023-05-02T19:18:36.511Z,99395.75
2023-05-02T19:21:40.329Z,99406.03
2023-05-02T19:24:42.555Z,99408.56
2023-05-02T19:27:47.640Z,99411.69
2023-05-02T19:30:50.066Z,99409.22
2023-05-02T19:33:56.427Z,99412.41
2023-05-02T19:36:58.892Z,99414.84
2023-05-02T19:40:01.863Z,99415.84
2023-05-02T19:43:04.290Z,99422.69
2023-05-02T19:46:06.963Z,99433.94
2023-05-02T19:49:09.564Z,99438.81
2023-05-02T19:52:12.062Z,99459.81
2023-05-02T19:55:16.144Z,99459.81
2023-05-02T19:58:18.372Z,99456.38
2023-05-02T20:01:21.317Z,99456.81
2023-05-02T20:04:25.887Z,99455.56
2023-05-02T20:07:28.582Z,99452.06
2023-05-02T20:10:32.108Z,99457.81
2023-05-02T20:13:34.310Z,99462.47
2023-05-02T20:16:36.791Z,99454.72
2023-05-02T20:19:39.459Z,99457.94
2023-05-02T20:22:41.690Z,99464.94
2023-05-02T20:25:44.056Z,99467.78
2023-05-02T20:28:46.327Z,99468.31
2023-05-02T20:31:48.604Z,99471.84
2023-05-02T20:34:50.953Z,99466.72
2023-05-02T20:37:53.992Z,99463.34
2023-05-02T20:40:57.573Z,99481.97
2023-05-02T20:44:01.306Z,99483.97
2023-05-02T20:47:06.904Z,99466.25
2023-05-02T20:50:09.493Z,99448.62
2023-05-02T20:53:11.689Z,99445.31
2023-05-02T20:56:13.878Z,99449.34
2023-05-02T20:59:16.191Z,99451.38
2023-05-02T21:02:18.362Z,99459.50
2023-05-02T21:05:20.951Z,99465.91
2023-05-02T21:08:23.374Z,99468.34
2023-05-02T21:11:25.562Z,99469.50
2023-05-02T21:14:27.840Z,99456.91
2023-05-02T21:17:30.120Z,99458.09
2023-05-02T21:20:33.040Z,99468.37
2023-05-02T21:23:35.486Z,99464.28
2023-05-02T21:26:37.720Z,99473.94
2023-05-02T21:29:39.937Z,99476.50
2023-05-02T21:32:42.486Z,99474.75
2023-05-02T21:35:44.845Z,99484.66
2023-05-02T21:38:47.050Z,99471.03
2023-05-02T21:41:49.303Z,99474.63
2023-05-02T21:44:51.535Z,99483.13
2023-05-02T21:47:54.285Z,99489.66
2023-05-02T21:50:56.542Z,99494.00
2023-05-02T21:53:58.744Z,99497.16
2023-05-02T21:57:02.749Z,99495.31
2023-05-02T22:00:06.196Z,99496.00
2023-05-02T22:03:11.714Z,99495.88
2023-05-02T22:06:14.441Z,99495.22
2023-05-02T22:09:17.604Z,99501.16
2023-05-02T22:12:26.793Z,99508.03
2023-05-02T22:15:29.717Z,99518.31
2023-05-02T22:18:31.990Z,99515.00
2023-05-02T22:21:34.360Z,99516.66
2023-05-02T22:24:36.576Z,99526.78
2023-05-02T22:27:38.808Z,99546.97
2023-05-02T22:30:44.538Z,99555.84
2023-05-02T22:33:49.883Z,99556.88
2023-05-02T22:36:52.172Z,99534.47
2023-05-02T22:39:54.362Z,99537.00
2023-05-02T22:42:56.601Z,99545.88
2023-05-02T22:46:02.557Z,99539.53
2023-05-02T22:49:06.280Z,99535.00
2023-05-02T22:52:08.635Z,99538.13
2023-05-02T22:55:10.880Z,99542.06
2023-05-02T22:58:13.087Z,99551.87
2023-05-02T23:01:15.577Z,99558.72
2023-05-02T23:04:17.809Z,99554.31
2023-05-02T23:07:20.045Z,99547.41
2023-05-02T23:10:22.272Z,99552.31
2023-05-02T23:13:24.477Z,99553.94
2023-05-02T23:16:26.913Z,99551.34
2023-05-02T23:19:29.656Z,99543.63
2023-05-02T23:22:34.196Z,99551.91
2023-05-02T23:25:36.714Z,99558.81
2023-05-02T23:28:39.529Z,99568.72
2023-05-02T23:31:41.819Z,99557.34
2023-05-02T23:34:44.297Z,99554.91
2023-05-02T23:37:46.543Z,99551.94
2023-05-02T23:40:48.875Z,99552.63
2023-05-02T23:43:51.072Z,99540.22
2023-05-02T23:46:53.367Z,99546.50
2023-05-02T23:49:55.652Z,99544.47
2023-05-02T23:52:57.888Z,99542.44
2023-05-02T23:56:00.105Z,99541.31
2023-05-02T23:59:02.372Z,99546.88
